createdAt,value
2022-10-15T00:01:22.903Z,29.40
2022-10-15T00:03:49.992Z,30.45
2022-10-15T00:06:20.946Z,30.58
2022-10-15T00:08:48.940Z,31.05
2022-10-15T00:11:20.595Z,30.13
2022-10-15T00:13:49.095Z,31.45
2022-10-15T00:16:22.790Z,32.25
2022-10-15T00:18:51.929Z,33.75
2022-10-15T00:21:21.263Z,33.38
2022-10-15T00:23:49.876Z,34.17
2022-10-15T00:26:23.756Z,33.45
2022-10-15T00:28:53.827Z,34.53
2022-10-15T00:31:26.371Z,35.25
2022-10-15T00:33:55.849Z,37.47
2022-10-15T00:36:27.259Z,38.35
2022-10-15T00:38:55.081Z,36.28
2022-10-15T00:41:31.298Z,36.40
2022-10-15T00:44:29.438Z,37.95
2022-10-15T00:47:24.185Z,36.20
2022-10-15T00:50:10.023Z,36.67
2022-10-15T00:52:57.692Z,36.25
2022-10-15T00:55:32.056Z,38.20
2022-10-15T00:58:06.135Z,37.20
2022-10-15T01:00:34.147Z,35.92
2022-10-15T01:03:01.432Z,35.03
2022-10-15T01:05:29.860Z,36.75
2022-10-15T01:07:56.782Z,37.45
2022-10-15T01:10:32.892Z,37.35
2022-10-15T01:13:08.780Z,37.85
2022-10-15T01:18:54.608Z,36.05
2022-10-15T01:21:48.509Z,34.40
2022-10-15T01:24:43.541Z,36.70
2022-10-15T01:27:33.506Z,37.08
2022-10-15T01:30:26.901Z,35.63
2022-10-15T01:33:35.772Z,35.25
2022-10-15T01:36:33.154Z,35.25
2022-10-15T01:39:16.650Z,34.72
2022-10-15T01:41:49.903Z,33.78
2022-10-15T01:44:27.972Z,35.67
2022-10-15T01:47:19.957Z,35.40
2022-10-15T01:49:49.809Z,34.65
2022-10-15T01:55:10.649Z,35.60
2022-10-15T01:57:41.916Z,35.13
2022-10-15T02:00:09.609Z,33.88
2022-10-15T02:02:43.132Z,34.13
2022-10-15T02:05:20.822Z,32.42
2022-10-15T02:08:16.376Z,34.72
2022-10-15T02:10:51.585Z,33.15
2022-10-15T02:13:31.768Z,32.10
2022-10-15T02:16:19.604Z,32.50
2022-10-15T02:19:08.195Z,33.47
2022-10-15T02:21:46.047Z,31.38
2022-10-15T02:24:24.251Z,32.28
2022-10-15T02:26:57.648Z,33.30
2022-10-15T02:29:31.855Z,31.42
2022-10-15T02:32:01.511Z,31.42
2022-10-15T02:34:32.789Z,31.73
2022-10-15T02:37:05.372Z,31.05
2022-10-15T02:39:34.778Z,33.22
2022-10-15T02:42:04.001Z,30.98
2022-10-15T02:44:32.587Z,30.80
2022-10-15T02:47:00.193Z,31.92
2022-10-15T02:49:27.359Z,31.48
2022-10-15T02:51:54.380Z,31.27
2022-10-15T02:54:21.351Z,30.35
2022-10-15T02:56:48.438Z,30.45
2022-10-15T02:59:19.594Z,31.65
2022-10-15T03:01:48.121Z,30.60
2022-10-15T03:04:16.114Z,30.05
2022-10-15T03:06:44.185Z,30.85
2022-10-15T03:09:12.248Z,31.85
2022-10-15T03:11:40.171Z,31.25
2022-10-15T03:14:07.558Z,31.60
2022-10-15T03:16:35.216Z,31.55
2022-10-15T03:19:02.248Z,30.95
2022-10-15T03:21:31.075Z,31.40
2022-10-15T03:24:05.660Z,31.30
2022-10-15T03:26:32.637Z,30.92
2022-10-15T03:28:59.616Z,30.15
2022-10-15T03:31:37.911Z,30.63
2022-10-15T03:34:06.023Z,31.50
2022-10-15T03:36:33.367Z,32.13
2022-10-15T03:39:01.397Z,31.17
2022-10-15T03:41:28.451Z,30.55
2022-10-15T03:44:00.763Z,29.88
2022-10-15T03:46:28.086Z,30.67
2022-10-15T03:48:55.004Z,31.20
2022-10-15T03:51:24.607Z,33.03
2022-10-15T03:53:59.862Z,32.80
2022-10-15T03:56:26.962Z,32.20
2022-10-15T03:59:00.924Z,33.55
2022-10-15T04:01:28.184Z,31.85
2022-10-15T04:03:56.910Z,32.70
2022-10-15T04:06:25.847Z,33.78
2022-10-15T04:08:53.367Z,33.83
2022-10-15T04:11:24.096Z,34.30
2022-10-15T04:14:01.229Z,35.17
2022-10-15T04:16:30.273Z,35.55
2022-10-15T04:18:58.702Z,36.42
2022-10-15T04:21:26.562Z,36.83
2022-10-15T04:23:59.052Z,34.78
2022-10-15T04:26:33.333Z,36.08
2022-10-15T04:29:01.455Z,36.72
2022-10-15T04:31:29.351Z,37.17
2022-10-15T04:33:57.305Z,37.05
2022-10-15T04:36:24.438Z,36.58
2022-10-15T04:39:02.922Z,37.97
2022-10-15T04:41:36.283Z,35.95
2022-10-15T04:44:07.330Z,38.78
2022-10-15T04:46:34.392Z,38.40
2022-10-15T04:49:09.493Z,37.83
2022-10-15T04:51:37.664Z,36.88
2022-10-15T04:54:13.008Z,39.70
2022-10-15T04:56:55.224Z,40.35
2022-10-15T04:59:22.555Z,40.20
2022-10-15T05:02:08.273Z,39.15
2022-10-15T05:04:36.192Z,40.33
2022-10-15T05:07:03.450Z,40.08
2022-10-15T05:09:31.396Z,38.58
2022-10-15T05:11:58.906Z,41.38
2022-10-15T05:14:28.262Z,39.38
2022-10-15T05:17:06.594Z,41.20
2022-10-15T05:19:39.279Z,41.85
2022-10-15T05:22:08.839Z,42.38
2022-10-15T05:24:42.416Z,41.63
2022-10-15T05:27:24.344Z,42.10
2022-10-15T05:29:51.605Z,43.17
2022-10-15T05:34:51.313Z,39.85
2022-10-15T05:37:18.366Z,41.65
2022-10-15T05:39:45.422Z,42.63
2022-10-15T05:42:12.418Z,40.63
2022-10-15T05:44:45.064Z,41.33
2022-10-15T05:47:12.439Z,42.65
2022-10-15T05:49:41.065Z,41.10
2022-10-15T05:52:21.099Z,42.95
2022-10-15T05:55:13.704Z,42.38
2022-10-15T05:57:41.127Z,41.60
2022-10-15T06:00:09.541Z,41.70
2022-10-15T06:02:39.668Z,42.42
2022-10-15T06:05:07.329Z,41.22
2022-10-15T06:07:34.451Z,42.15
2022-10-15T06:10:05.964Z,43.42
2022-10-15T06:12:36.032Z,43.42
2022-10-15T06:15:03.045Z,43.17
2022-10-15T06:17:30.139Z,41.55
2022-10-15T06:19:57.276Z,44.47
2022-10-15T06:22:24.516Z,42.13
2022-10-15T06:24:51.573Z,42.95
2022-10-15T06:27:18.494Z,43.13
2022-10-15T06:29:45.404Z,43.55
2022-10-15T06:32:12.445Z,43.70
2022-10-15T06:34:43.984Z,41.72
2022-10-15T06:37:11.028Z,42.60
2022-10-15T06:39:38.098Z,41.78
2022-10-15T06:42:05.013Z,41.40
2022-10-15T06:44:39.814Z,41.58
2022-10-15T06:47:06.773Z,41.53
2022-10-15T06:49:33.800Z,40.85
2022-10-15T06:52:03.629Z,40.72
2022-10-15T06:54:31.037Z,43.17
2022-10-15T06:56:57.956Z,40.95
2022-10-15T06:59:24.868Z,40.97
2022-10-15T07:01:54.056Z,40.08
2022-10-15T07:04:23.622Z,40.80
2022-10-15T07:06:50.644Z,39.30
2022-10-15T07:09:20.526Z,40.03
2022-10-15T07:11:47.679Z,38.63
2022-10-15T07:14:14.717Z,38.13
2022-10-15T07:16:41.652Z,40.00
2022-10-15T07:19:08.581Z,37.78
2022-10-15T07:21:35.838Z,39.80
2022-10-15T07:24:02.975Z,39.28
2022-10-15T07:26:31.616Z,38.67
2022-10-15T07:29:03.318Z,38.50
2022-10-15T07:31:31.025Z,38.58
2022-10-15T07:33:58.268Z,37.60
2022-10-15T07:36:26.323Z,37.60
2022-10-15T07:38:53.457Z,38.25
2022-10-15T07:41:20.450Z,37.53
2022-10-15T07:43:47.618Z,37.03
2022-10-15T07:46:14.703Z,36.75
2022-10-15T07:48:41.754Z,36.97
2022-10-15T07:51:10.986Z,36.78
2022-10-15T07:53:38.170Z,36.42
2022-10-15T07:56:10.116Z,37.25
2022-10-15T07:58:38.767Z,36.78
2022-10-15T08:01:08.228Z,37.03
2022-10-15T08:03:37.093Z,38.03
2022-10-15T08:06:06.980Z,36.00
2022-10-15T08:08:35.335Z,35.13
2022-10-15T08:11:12.001Z,34.17
2022-10-15T08:13:42.162Z,34.13
2022-10-15T08:16:11.736Z,34.58
2022-10-15T08:18:39.269Z,35.50
2022-10-15T08:21:07.933Z,35.53
2022-10-15T08:23:36.169Z,35.90
2022-10-15T08:26:03.501Z,35.53
2022-10-15T08:28:33.414Z,36.35
2022-10-15T08:31:05.242Z,36.40
2022-10-15T08:33:38.022Z,35.47
2022-10-15T08:36:06.517Z,35.72
2022-10-15T08:38:35.123Z,35.45
2022-10-15T08:41:11.536Z,33.92
2022-10-15T08:43:42.350Z,36.35
2022-10-15T08:46:25.521Z,35.30
2022-10-15T08:48:56.493Z,35.35
2022-10-15T08:51:29.894Z,36.63
2022-10-15T08:54:04.695Z,36.83
2022-10-15T08:56:36.850Z,36.67
2022-10-15T08:59:45.795Z,37.38
2022-10-15T09:02:41.982Z,36.78
2022-10-15T09:05:26.123Z,36.80
2022-10-15T09:08:26.254Z,37.63
2022-10-15T09:11:00.093Z,35.95
2022-10-15T09:16:37.856Z,32.63
2022-10-15T09:19:24.276Z,32.58
2022-10-15T09:21:53.022Z,33.13
2022-10-15T09:24:30.394Z,31.42
2022-10-15T09:27:22.040Z,30.30
2022-10-15T09:30:27.690Z,30.02
2022-10-15T09:33:54.471Z,28.10
2022-10-15T09:36:55.124Z,25.00
2022-10-15T09:39:37.348Z,24.98
2022-10-15T09:42:30.591Z,25.65
2022-10-15T09:45:05.998Z,25.70
2022-10-15T09:47:35.840Z,27.23
2022-10-15T09:50:10.402Z,25.92
2022-10-15T09:52:49.181Z,25.90
2022-10-15T09:55:48.158Z,26.42
2022-10-15T09:58:24.167Z,24.90
2022-10-15T10:03:36.620Z,26.38
2022-10-15T10:06:09.112Z,26.58
2022-10-15T10:08:58.283Z,26.52
2022-10-15T10:11:27.260Z,26.80
2022-10-15T10:14:00.364Z,26.83
2022-10-15T10:16:30.179Z,27.33
2022-10-15T10:19:13.468Z,26.00
2022-10-15T10:21:43.307Z,27.83
2022-10-15T10:24:30.235Z,26.08
2022-10-15T10:26:59.117Z,24.85
2022-10-15T10:29:35.251Z,25.85
2022-10-15T10:32:34.329Z,25.92
2022-10-15T10:35:04.069Z,23.88
2022-10-15T10:37:42.880Z,22.95
2022-10-15T10:40:29.037Z,22.98
2022-10-15T10:43:18.065Z,22.48
2022-10-15T10:46:01.462Z,22.52
2022-10-15T10:48:48.659Z,21.45
2022-10-15T10:51:22.617Z,20.27
2022-10-15T10:54:06.675Z,19.05
2022-10-15T10:56:44.406Z,19.35
2022-10-15T10:59:35.985Z,20.00
2022-10-15T11:02:06.293Z,19.05
2022-10-15T11:04:35.862Z,19.02
2022-10-15T11:07:33.242Z,18.27
2022-10-15T11:10:26.212Z,18.13
2022-10-15T11:13:16.866Z,17.77
2022-10-15T11:16:21.276Z,17.45
2022-10-15T11:19:19.738Z,19.02
2022-10-15T11:22:39.624Z,18.45
2022-10-15T11:25:43.364Z,19.20
2022-10-15T11:28:55.537Z,18.65
2022-10-15T11:32:02.874Z,18.80
2022-10-15T11:35:40.996Z,18.25
2022-10-15T11:38:48.498Z,18.50
2022-10-15T11:42:11.096Z,17.10
2022-10-15T11:44:55.584Z,17.33
2022-10-15T11:47:40.461Z,17.70
2022-10-15T11:50:31.838Z,17.92
2022-10-15T11:53:25.222Z,16.65
2022-10-15T11:55:58.552Z,17.75
2022-10-15T11:59:00.293Z,17.27
2022-10-15T12:01:44.053Z,16.58
2022-10-15T12:04:18.075Z,16.42
2022-10-15T12:06:52.548Z,16.10
2022-10-15T12:09:37.025Z,16.05
2022-10-15T12:12:08.466Z,15.85
2022-10-15T12:14:47.891Z,15.48
2022-10-15T12:17:47.244Z,15.90
2022-10-15T12:20:18.533Z,16.27
2022-10-15T12:23:00.978Z,15.57
2022-10-15T12:25:34.005Z,15.93
2022-10-15T12:28:21.643Z,17.17
2022-10-15T12:31:03.838Z,16.73
2022-10-15T12:33:45.968Z,16.63
2022-10-15T12:36:18.896Z,16.58
2022-10-15T12:39:07.838Z,15.95
2022-10-15T12:41:46.216Z,17.30
2022-10-15T12:46:58.593Z,17.23
2022-10-15T12:49:32.092Z,17.65
2022-10-15T12:52:01.998Z,17.45
2022-10-15T12:54:42.093Z,16.70
2022-10-15T12:57:38.758Z,16.60
2022-10-15T13:00:24.698Z,16.92
2022-10-15T13:02:54.201Z,15.18
2022-10-15T13:05:35.925Z,14.55
2022-10-15T13:08:25.910Z,14.88
2022-10-15T13:10:58.191Z,15.10
2022-10-15T13:13:29.988Z,14.73
2022-10-15T13:16:06.902Z,15.23
2022-10-15T13:18:34.279Z,15.27
2022-10-15T13:23:34.584Z,14.73
2022-10-15T13:26:19.155Z,14.20
2022-10-15T13:28:49.201Z,13.45
2022-10-15T13:31:29.045Z,12.73
2022-10-15T13:34:10.916Z,12.00
2022-10-15T13:36:39.666Z,12.63
2022-10-15T13:39:20.555Z,12.63
2022-10-15T13:41:47.786Z,12.32
2022-10-15T13:44:23.461Z,11.43
2022-10-15T13:46:51.075Z,11.07
2022-10-15T13:49:20.037Z,11.73
2022-10-15T13:51:53.230Z,10.57
2022-10-15T13:54:24.897Z,10.05
2022-10-15T13:56:58.825Z,9.50
2022-10-15T13:59:29.899Z,8.70
2022-10-15T14:02:01.535Z,9.23
2022-10-15T14:04:31.618Z,9.05
2022-10-15T14:07:24.330Z,8.52
2022-10-15T14:09:51.878Z,8.05
2022-10-15T14:12:18.916Z,7.40
2022-10-15T14:14:48.154Z,7.03
2022-10-15T14:17:27.609Z,7.43
2022-10-15T14:22:53.764Z,6.38
2022-10-15T14:25:25.328Z,6.43
2022-10-15T14:27:53.247Z,5.40
2022-10-15T14:30:35.939Z,5.93
2022-10-15T14:33:03.371Z,6.15
2022-10-15T14:35:36.388Z,6.13
2022-10-15T14:38:16.637Z,5.70
2022-10-15T14:41:09.206Z,4.93
2022-10-15T14:43:37.726Z,5.20
2022-10-15T14:46:07.695Z,5.05
2022-10-15T14:48:38.020Z,4.93
2022-10-15T14:51:18.838Z,4.97
2022-10-15T14:53:47.383Z,5.07
2022-10-15T14:56:21.073Z,5.15
2022-10-15T14:59:09.027Z,5.22
2022-10-15T15:01:36.108Z,4.68
2022-10-15T15:04:03.215Z,5.40
2022-10-15T15:06:32.618Z,4.70
2022-10-15T15:08:59.895Z,4.80
2022-10-15T15:11:26.941Z,4.97
2022-10-15T15:13:55.417Z,5.32
2022-10-15T15:16:22.725Z,5.65
2022-10-15T15:18:49.824Z,4.97
2022-10-15T15:21:23.671Z,5.50
2022-10-15T15:23:51.244Z,5.13
2022-10-15T15:26:18.227Z,5.18
2022-10-15T15:28:45.428Z,4.80
2022-10-15T15:31:17.481Z,5.28
2022-10-15T15:33:44.815Z,4.60
2022-10-15T15:36:18.988Z,4.75
2022-10-15T15:38:49.813Z,4.85
2022-10-15T15:41:22.565Z,4.80
2022-10-15T15:43:50.528Z,4.78
2022-10-15T15:46:17.965Z,4.60
2022-10-15T15:48:44.988Z,5.00
2022-10-15T15:51:21.156Z,4.47
2022-10-15T15:53:48.421Z,4.50
2022-10-15T15:56:15.473Z,4.20
2022-10-15T15:58:42.610Z,4.70
2022-10-15T16:01:09.659Z,4.22
2022-10-15T16:03:36.753Z,4.18
2022-10-15T16:06:08.368Z,4.45
2022-10-15T16:08:37.117Z,4.30
2022-10-15T16:11:06.012Z,4.32
2022-10-15T16:13:33.993Z,4.47
2022-10-15T16:16:01.265Z,4.43
2022-10-15T16:18:28.300Z,3.90
2022-10-15T16:20:55.686Z,4.55
2022-10-15T16:23:22.835Z,4.57
2022-10-15T16:25:49.843Z,4.43
2022-10-15T16:28:16.866Z,4.30
2022-10-15T16:30:44.014Z,4.30
2022-10-15T16:33:10.986Z,4.32
2022-10-15T16:35:38.086Z,4.80
2022-10-15T16:38:05.229Z,4.70
2022-10-15T16:40:33.524Z,4.13
2022-10-15T16:43:00.786Z,4.78
2022-10-15T16:45:27.786Z,4.65
2022-10-15T16:47:54.877Z,5.05
2022-10-15T16:50:22.662Z,4.80
2022-10-15T16:52:49.748Z,4.57
2022-10-15T16:55:17.067Z,4.72
2022-10-15T16:57:44.539Z,5.05
2022-10-15T17:00:12.449Z,4.72
2022-10-15T17:02:39.814Z,4.38
2022-10-15T17:05:07.953Z,4.53
2022-10-15T17:07:35.112Z,5.22
2022-10-15T17:10:02.394Z,5.10
2022-10-15T17:12:29.455Z,4.93
2022-10-15T17:14:56.378Z,5.07
2022-10-15T17:17:23.539Z,4.68
2022-10-15T17:19:50.598Z,4.80
2022-10-15T17:22:17.585Z,5.18
2022-10-15T17:24:44.681Z,5.10
2022-10-15T17:27:11.634Z,4.97
2022-10-15T17:29:38.959Z,4.90
2022-10-15T17:32:06.134Z,4.32
2022-10-15T17:34:33.146Z,5.00
2022-10-15T17:37:00.110Z,4.80
2022-10-15T17:39:27.168Z,4.15
2022-10-15T17:41:54.290Z,4.35
2022-10-15T17:44:21.441Z,4.18
2022-10-15T17:49:27.105Z,5.47
2022-10-15T17:51:54.636Z,5.72
2022-10-15T17:54:21.660Z,5.55
2022-10-15T17:56:50.149Z,5.65
2022-10-15T17:59:18.072Z,5.88
2022-10-15T18:01:57.677Z,5.53
2022-10-15T18:04:26.940Z,5.13
2022-10-15T18:06:54.025Z,4.53
2022-10-15T18:09:28.142Z,5.32
2022-10-15T18:11:56.924Z,4.22
2022-10-15T18:14:29.423Z,4.90
2022-10-15T18:16:56.739Z,4.35
2022-10-15T18:19:25.756Z,4.00
2022-10-15T18:21:53.182Z,4.20
2022-10-15T18:24:21.955Z,3.22
2022-10-15T18:26:52.978Z,3.05
2022-10-15T18:29:20.320Z,3.47
2022-10-15T18:31:47.524Z,3.50
2022-10-15T18:34:14.774Z,3.90
2022-10-15T18:36:43.435Z,3.55
2022-10-15T18:39:10.853Z,3.42
2022-10-15T18:41:39.848Z,3.20
2022-10-15T18:44:14.860Z,3.33
2022-10-15T18:46:44.752Z,2.97
2022-10-15T18:49:13.981Z,3.00
2022-10-15T18:51:41.837Z,2.63
2022-10-15T18:54:10.733Z,2.97
2022-10-15T18:56:38.295Z,2.88
2022-10-15T18:59:05.746Z,3.22
2022-10-15T19:01:39.027Z,3.30
2022-10-15T19:04:09.794Z,3.10
2022-10-15T19:06:44.320Z,3.25
2022-10-15T19:09:14.950Z,3.42
2022-10-15T19:11:45.637Z,3.95
2022-10-15T19:14:13.412Z,3.10
2022-10-15T19:16:40.523Z,3.30
2022-10-15T19:19:16.001Z,4.03
2022-10-15T19:21:44.860Z,3.78
2022-10-15T19:24:12.746Z,3.85
2022-10-15T19:26:39.805Z,4.18
2022-10-15T19:29:06.907Z,3.88
2022-10-15T19:31:37.984Z,4.25
2022-10-15T19:34:06.147Z,4.53
2022-10-15T19:36:36.983Z,4.25
2022-10-15T19:39:12.141Z,3.95
2022-10-15T19:41:41.069Z,3.97
2022-10-15T19:44:09.440Z,4.57
2022-10-15T19:46:37.776Z,4.72
2022-10-15T19:49:06.784Z,4.10
2022-10-15T19:51:35.415Z,4.35
2022-10-15T19:54:02.931Z,4.63
2022-10-15T19:56:32.064Z,4.47
2022-10-15T19:59:04.634Z,4.45
2022-10-15T20:01:32.277Z,4.47
2022-10-15T20:04:05.849Z,4.65
2022-10-15T20:06:36.311Z,4.40
2022-10-15T20:09:05.492Z,4.25
2022-10-15T20:11:32.955Z,4.18
2022-10-15T20:14:01.013Z,3.83
2022-10-15T20:16:32.421Z,4.60
2022-10-15T20:19:03.666Z,4.30
2022-10-15T20:21:31.114Z,4.05
2022-10-15T20:23:59.152Z,3.90
2022-10-15T20:26:26.085Z,4.28
2022-10-15T20:28:53.465Z,4.10
2022-10-15T20:31:21.507Z,3.92
2022-10-15T20:33:49.289Z,4.15
2022-10-15T20:36:22.801Z,4.15
2022-10-15T20:38:51.651Z,3.70
2022-10-15T20:41:19.101Z,4.57
2022-10-15T20:43:47.213Z,3.97
2022-10-15T20:46:20.617Z,4.00
2022-10-15T20:48:48.294Z,3.40
2022-10-15T20:51:17.649Z,3.85
2022-10-15T20:53:45.913Z,3.72
2022-10-15T20:56:13.268Z,4.07
2022-10-15T20:58:40.493Z,3.97
2022-10-15T21:01:07.872Z,3.33
2022-10-15T21:03:35.091Z,3.35
2022-10-15T21:06:02.214Z,3.05
2022-10-15T21:08:29.300Z,3.22
2022-10-15T21:11:07.786Z,3.30
2022-10-15T21:13:35.450Z,3.40
2022-10-15T21:16:05.981Z,3.15
2022-10-15T21:18:35.455Z,2.80
2022-10-15T21:21:05.907Z,2.75
2022-10-15T21:23:33.724Z,2.58
2022-10-15T21:26:12.373Z,2.65
2022-10-15T21:28:40.055Z,2.47
2022-10-15T21:31:13.669Z,2.60
2022-10-15T21:33:41.860Z,2.47
2022-10-15T21:36:22.031Z,2.65
2022-10-15T21:38:57.088Z,2.65
2022-10-15T21:41:26.748Z,2.30
2022-10-15T21:43:54.002Z,2.20
2022-10-15T21:46:21.113Z,2.15
2022-10-15T21:48:48.367Z,2.15
2022-10-15T21:51:23.728Z,2.35
2022-10-15T21:53:51.189Z,2.00
2022-10-15T21:56:18.789Z,2.42
2022-10-15T21:58:46.384Z,2.70
2022-10-15T22:01:26.758Z,2.10
2022-10-15T22:03:59.179Z,2.35
2022-10-15T22:06:27.350Z,2.30
2022-10-15T22:08:55.391Z,2.35
2022-10-15T22:14:03.713Z,2.95
2022-10-15T22:16:34.583Z,2.00
2022-10-15T22:19:01.875Z,2.45
2022-10-15T22:21:33.033Z,2.30
2022-10-15T22:24:05.253Z,2.00
2022-10-15T22:26:37.002Z,2.05
2022-10-15T22:29:05.988Z,2.33
2022-10-15T22:31:33.739Z,2.33
2022-10-15T22:34:01.442Z,2.97
2022-10-15T22:36:30.949Z,2.40
2022-10-15T22:39:05.125Z,2.55
2022-10-15T22:41:41.858Z,2.50
2022-10-15T22:44:18.660Z,2.78
2022-10-15T22:46:49.125Z,2.90
2022-10-15T22:49:19.597Z,2.75
2022-10-15T22:51:48.394Z,2.88
2022-10-15T22:54:17.507Z,2.72
2022-10-15T22:56:46.190Z,2.85
2022-10-15T22:59:14.686Z,2.65
2022-10-15T23:01:42.091Z,2.80
2022-10-15T23:04:12.279Z,2.60
2022-10-15T23:06:39.736Z,2.65
2022-10-15T23:09:08.415Z,2.92
2022-10-15T23:11:39.690Z,2.65
2022-10-15T23:14:12.439Z,2.42
2022-10-15T23:16:43.299Z,2.55
2022-10-15T23:19:17.869Z,2.95
2022-10-15T23:21:48.601Z,2.67
2022-10-15T23:24:17.809Z,2.40
2022-10-15T23:26:44.945Z,2.53
2022-10-15T23:29:19.351Z,2.50
2022-10-15T23:31:47.940Z,3.00
2022-10-15T23:34:19.126Z,2.90
2022-10-15T23:36:46.319Z,3.15
2022-10-15T23:39:17.902Z,2.70
2022-10-15T23:41:45.222Z,2.67
2022-10-15T23:44:13.086Z,2.50
2022-10-15T23:46:40.850Z,2.45
2022-10-15T23:49:08.815Z,2.60
2022-10-15T23:51:36.698Z,2.45
2022-10-15T23:54:10.505Z,2.40
2022-10-15T23:56:37.562Z,2.30
2022-10-15T23:59:04.699Z,2.47
